Time;durP1;ratioP1;P1;durP2;ratioP2;P2;SDS_P1;SDS_P2;PMS_P1;PMS_P2;Temp;Humidity;BMP_temperature;BMP_pressure;BME280_temperature;BME280_humidity;BME280_pressure;Samples;Min_cycle;Max_cycle;Signal;HPM_P1;HPM_P2
2021/11/22 00:02:00;;;;;;;7.70;5.00;;;6.80;99.90;;;;;;5097888;28;20460;-68
2021/11/22 00:04:27;;;;;;;6.00;4.60;;;6.80;99.90;;;;;;5097684;28;20503;-68
2021/11/22 00:06:54;;;;;;;7.57;5.17;;;6.80;99.90;;;;;;5097759;28;20458;-68
2021/11/22 00:09:21;;;;;;;11.40;4.90;;;6.80;99.90;;;;;;5097835;28;20491;-68
2021/11/22 00:11:49;;;;;;;9.27;5.40;;;6.80;99.90;;;;;;5097672;28;20536;-68
2021/11/22 00:14:18;;;;;;;5.47;4.87;;;6.90;99.90;;;;;;5097760;28;20454;-68
2021/11/22 00:16:45;;;;;;;8.03;4.37;;;6.90;99.90;;;;;;5097463;28;20934;-68
2021/11/22 00:19:12;;;;;;;6.53;4.30;;;6.80;99.90;;;;;;5097577;28;20515;-68
2021/11/22 00:21:39;;;;;;;8.07;5.50;;;6.80;99.90;;;;;;5097460;28;20541;-68
2021/11/22 00:24:07;;;;;;;7.83;5.30;;;6.90;99.90;;;;;;5097755;28;20506;-68
2021/11/22 00:26:34;;;;;;;9.23;5.20;;;6.90;99.90;;;;;;5097504;28;20457;-69
2021/11/22 00:29:01;;;;;;;12.20;4.50;;;6.90;99.90;;;;;;5096932;28;20544;-68
2021/11/22 00:31:29;;;;;;;9.07;4.97;;;6.90;99.90;;;;;;5097467;28;20482;-68
2021/11/22 00:33:57;;;;;;;12.60;5.00;;;6.90;99.90;;;;;;5097608;28;20517;-68
2021/11/22 00:36:24;;;;;;;8.10;4.03;;;7.00;99.90;;;;;;5097514;28;20458;-68
2021/11/22 00:38:51;;;;;;;7.30;3.50;;;7.00;99.90;;;;;;5097273;28;20778;-68
2021/11/22 00:41:18;;;;;;;9.40;4.93;;;7.00;99.90;;;;;;5097309;28;20456;-68
2021/11/22 00:43:45;;;;;;;7.23;4.93;;;7.00;99.90;;;;;;5097133;28;20469;-68
2021/11/22 00:46:12;;;;;;;5.70;4.10;;;7.00;99.90;;;;;;5097103;28;20490;-68
2021/11/22 00:48:41;;;;;;;9.00;4.20;;;7.00;99.90;;;;;;5096905;28;20561;-68
2021/11/22 00:51:08;;;;;;;9.00;5.53;;;6.90;99.90;;;;;;5097028;28;20519;-68
2021/11/22 00:53:35;;;;;;;13.50;5.53;;;6.90;99.90;;;;;;5097219;28;20526;-68
2021/11/22 00:56:02;;;;;;;10.13;4.40;;;6.90;99.90;;;;;;5097053;28;20830;-68
2021/11/22 00:58:29;;;;;;;10.73;4.73;;;6.80;99.90;;;;;;5096617;28;20488;-68
2021/11/22 01:00:56;;;;;;;5.80;3.90;;;6.80;99.90;;;;;;5096558;28;20511;-68
2021/11/22 01:03:23;;;;;;;8.23;4.20;;;6.70;99.90;;;;;;5096548;28;20486;-68
2021/11/22 01:05:51;;;;;;;8.40;4.40;;;6.70;99.90;;;;;;5096403;28;20461;-68
2021/11/22 01:08:19;;;;;;;7.30;4.43;;;6.60;99.90;;;;;;5096172;28;20479;-68
2021/11/22 01:10:46;;;;;;;5.73;4.53;;;6.50;99.90;;;;;;5096560;28;20490;-68
2021/11/22 01:13:13;;;;;;;6.60;4.10;;;6.50;99.90;;;;;;5096726;28;20494;-68
2021/11/22 01:15:40;;;;;;;8.50;3.73;;;6.40;99.90;;;;;;5096376;28;20550;-68
2021/11/22 01:18:07;;;;;;;5.70;3.60;;;6.40;99.90;;;;;;5096616;28;20489;-68
2021/11/22 01:20:34;;;;;;;7.90;3.93;;;6.40;99.90;;;;;;5096230;28;20486;-68
2021/11/22 01:23:07;;;;;;;4.03;3.57;;;6.30;99.90;;;;;;5096189;28;20514;-68
2021/11/22 01:25:35;;;;;;;6.10;3.97;;;6.30;99.90;;;;;;5095936;28;20503;-68
2021/11/22 01:28:02;;;;;;;5.70;4.20;;;6.20;99.90;;;;;;5096668;28;20462;-68
2021/11/22 01:30:29;;;;;;;6.77;4.10;;;6.20;99.90;;;;;;5096101;28;20535;-68
2021/11/22 01:32:57;;;;;;;5.80;3.80;;;6.10;99.90;;;;;;5095952;28;20462;-68
2021/11/22 01:35:24;;;;;;;6.50;4.10;;;6.10;99.90;;;;;;5096059;28;20932;-68
2021/11/22 01:37:52;;;;;;;5.17;3.37;;;6.00;99.90;;;;;;5095578;28;20775;-68
2021/11/22 01:40:26;;;;;;;5.20;3.23;;;5.90;99.90;;;;;;5096186;28;20438;-68
2021/11/22 01:42:55;;;;;;;4.40;3.50;;;5.90;99.90;;;;;;5096130;28;20441;-68
2021/11/22 01:45:24;;;;;;;6.10;3.20;;;5.80;99.90;;;;;;5095801;28;20456;-68
2021/11/22 01:47:51;;;;;;;7.60;3.50;;;5.80;99.90;;;;;;5095553;28;20504;-68
2021/11/22 01:50:21;;;;;;;5.07;3.80;;;5.80;99.90;;;;;;5096150;28;20481;-68
2021/11/22 01:52:51;;;;;;;5.23;3.97;;;5.80;99.90;;;;;;5095441;28;20834;-68
2021/11/22 01:55:22;;;;;;;5.60;3.60;;;5.80;99.90;;;;;;5095412;28;20489;-68
2021/11/22 01:57:51;;;;;;;7.27;3.20;;;5.80;99.90;;;;;;5095707;28;20597;-68
2021/11/22 02:00:22;;;;;;;5.60;3.43;;;5.80;99.90;;;;;;5095155;28;20456;-68
2021/11/22 02:02:49;;;;;;;8.37;3.90;;;5.90;99.90;;;;;;5095657;28;20451;-68
2021/11/22 02:05:16;;;;;;;6.20;3.00;;;5.90;99.90;;;;;;5095679;28;20771;-68
2021/11/22 02:07:44;;;;;;;5.00;3.13;;;5.90;99.90;;;;;;5095612;28;20463;-68
2021/11/22 02:10:12;;;;;;;4.33;2.77;;;5.90;99.90;;;;;;5095643;28;20547;-68
2021/11/22 02:12:41;;;;;;;4.00;2.77;;;5.90;99.90;;;;;;5095245;28;20864;-67
2021/11/22 02:15:10;;;;;;;7.20;3.00;;;6.00;99.90;;;;;;5095118;28;20458;-67
2021/11/22 02:17:39;;;;;;;4.53;4.13;;;6.00;99.90;;;;;;5095489;28;20461;-67
2021/11/22 02:20:10;;;;;;;2.63;2.10;;;6.00;99.90;;;;;;5094908;28;20488;-67
2021/11/22 02:22:37;;;;;;;3.10;2.53;;;6.00;99.90;;;;;;5094931;28;20982;-68
2021/11/22 02:25:07;;;;;;;4.40;2.53;;;6.00;99.90;;;;;;5095332;28;20979;-67
2021/11/22 02:27:35;;;;;;;3.37;2.50;;;6.10;99.90;;;;;;5095120;28;20484;-68
2021/11/22 02:30:02;;;;;;;3.17;2.33;;;6.10;99.90;;;;;;5095546;28;20593;-68
2021/11/22 02:32:36;;;;;;;4.27;2.20;;;6.10;99.90;;;;;;5095168;28;20456;-68
2021/11/22 02:35:05;;;;;;;4.20;1.80;;;6.20;99.90;;;;;;5096052;28;20977;-68
2021/11/22 02:37:33;;;;;;;2.40;1.53;;;6.20;99.90;;;;;;5096536;28;20484;-68
2021/11/22 02:40:00;;;;;;;3.53;1.80;;;6.20;99.90;;;;;;5095510;28;20466;-68
2021/11/22 02:42:30;;;;;;;2.87;1.60;;;6.30;99.90;;;;;;5094756;28;20457;-68
2021/11/22 02:44:58;;;;;;;2.30;1.90;;;6.30;99.90;;;;;;5095224;28;20515;-68
2021/11/22 02:47:26;;;;;;;5.00;1.93;;;6.30;99.90;;;;;;5094704;28;20486;-67
2021/11/22 02:49:53;;;;;;;1.60;1.40;;;6.40;99.90;;;;;;5094544;28;20550;-68
2021/11/22 02:52:20;;;;;;;2.37;1.50;;;6.40;99.90;;;;;;5094982;28;20527;-68
2021/11/22 02:54:48;;;;;;;2.80;1.80;;;6.40;99.90;;;;;;5095257;28;20458;-68
2021/11/22 02:57:16;;;;;;;1.90;1.60;;;6.50;99.90;;;;;;5094830;28;20467;-68
2021/11/22 02:59:44;;;;;;;3.07;1.90;;;6.50;99.90;;;;;;5094555;28;20459;-68
2021/11/22 03:02:13;;;;;;;1.70;1.60;;;6.50;99.90;;;;;;5094670;28;20515;-66
2021/11/22 03:04:43;;;;;;;3.30;1.60;;;6.60;99.90;;;;;;5094540;28;20930;-69
2021/11/22 03:07:11;;;;;;;3.37;1.73;;;6.60;99.90;;;;;;5094669;28;20482;-68
2021/11/22 03:09:39;;;;;;;2.00;1.70;;;6.60;99.90;;;;;;5094288;28;20485;-68
2021/11/22 03:12:10;;;;;;;3.20;1.43;;;6.60;99.90;;;;;;5094548;28;20462;-68
2021/11/22 03:14:38;;;;;;;2.03;1.63;;;6.60;99.90;;;;;;5094369;28;20494;-68
2021/11/22 03:17:05;;;;;;;4.17;1.80;;;6.60;99.90;;;;;;5094595;28;20457;-67
2021/11/22 03:19:32;;;;;;;2.97;1.57;;;6.60;99.90;;;;;;5094338;28;20457;-68
2021/11/22 03:21:59;;;;;;;2.40;1.70;;;6.60;99.90;;;;;;5094343;28;20481;-67
2021/11/22 03:24:27;;;;;;;4.27;1.47;;;6.60;99.90;;;;;;5094240;28;20456;-68
2021/11/22 03:26:55;;;;;;;4.03;1.30;;;6.60;99.90;;;;;;5094571;28;20461;-68
2021/11/22 03:29:23;;;;;;;3.20;1.50;;;6.70;99.90;;;;;;5094276;28;20531;-67
2021/11/22 03:31:50;;;;;;;1.73;1.50;;;6.70;99.90;;;;;;5094258;28;20457;-67
2021/11/22 03:34:17;;;;;;;2.90;1.70;;;6.70;99.90;;;;;;5094832;28;20458;-67
2021/11/22 03:36:44;;;;;;;1.70;1.50;;;6.70;99.90;;;;;;5094362;28;20455;-68
2021/11/22 03:39:18;;;;;;;3.67;1.53;;;6.70;99.90;;;;;;5094743;28;20486;-68
2021/11/22 03:41:45;;;;;;;4.97;1.87;;;6.70;99.90;;;;;;5094170;28;20465;-68
2021/11/22 03:44:13;;;;;;;1.73;1.17;;;6.70;99.90;;;;;;5094296;28;20458;-68
2021/11/22 03:46:44;;;;;;;5.27;2.00;;;6.60;99.90;;;;;;5093998;28;20454;-68
2021/11/22 03:49:12;;;;;;;8.50;1.57;;;6.60;99.90;;;;;;5094528;28;20489;-68
2021/11/22 03:51:40;;;;;;;1.97;1.40;;;6.60;99.90;;;;;;5094538;28;20483;-68
2021/11/22 03:54:08;;;;;;;2.30;1.50;;;6.60;99.90;;;;;;5094897;28;20458;-68
2021/11/22 03:56:35;;;;;;;2.30;1.10;;;6.60;99.90;;;;;;5094558;28;20500;-68
2021/11/22 03:59:02;;;;;;;2.43;1.20;;;6.60;99.90;;;;;;5094367;28;20528;-68
2021/11/22 04:01:29;;;;;;;1.93;1.07;;;6.60;99.90;;;;;;5095927;28;20486;-68
2021/11/22 04:03:57;;;;;;;1.50;1.27;;;6.60;99.90;;;;;;5097925;28;21032;-68
2021/11/22 04:06:24;;;;;;;1.10;0.90;;;6.70;99.90;;;;;;5097985;28;20500;-68
2021/11/22 04:08:51;;;;;;;3.47;1.43;;;6.70;99.90;;;;;;5098615;28;20467;-68
2021/11/22 04:11:18;;;;;;;1.57;1.03;;;6.70;99.90;;;;;;5097525;28;20498;-68
2021/11/22 04:13:46;;;;;;;2.03;1.47;;;6.70;99.90;;;;;;5097606;28;20462;-69
2021/11/22 04:16:14;;;;;;;1.90;1.40;;;6.70;99.90;;;;;;5097679;28;20941;-67
2021/11/22 04:18:42;;;;;;;2.10;1.40;;;6.70;99.90;;;;;;5097976;28;20457;-67
2021/11/22 04:21:12;;;;;;;2.90;1.63;;;6.70;99.90;;;;;;5097849;28;20549;-68
2021/11/22 04:23:39;;;;;;;1.60;1.27;;;6.70;99.90;;;;;;5097912;28;20999;-68
2021/11/22 04:26:08;;;;;;;2.23;1.10;;;6.70;99.90;;;;;;5097552;28;20466;-68
2021/11/22 04:28:35;;;;;;;5.53;1.33;;;6.70;99.90;;;;;;5097471;28;20839;-68
2021/11/22 04:31:02;;;;;;;1.70;1.13;;;6.60;99.90;;;;;;5097107;28;20493;-68
2021/11/22 04:33:29;;;;;;;4.77;1.47;;;6.60;99.90;;;;;;5097458;28;20490;-68
2021/11/22 04:35:56;;;;;;;6.20;1.87;;;6.70;99.90;;;;;;5097051;28;20465;-68
2021/11/22 04:38:24;;;;;;;1.50;1.00;;;6.70;99.90;;;;;;5097342;28;20458;-68
2021/11/22 04:40:51;;;;;;;1.70;1.27;;;6.70;99.90;;;;;;5096995;28;20486;-68
2021/11/22 04:43:18;;;;;;;1.73;1.43;;;6.70;99.90;;;;;;5097024;28;20489;-68
2021/11/22 04:45:45;;;;;;;4.20;1.33;;;6.70;99.90;;;;;;5097230;28;21027;-68
2021/11/22 04:48:12;;;;;;;1.60;1.10;;;6.70;99.90;;;;;;5096723;28;20458;-68
2021/11/22 04:50:39;;;;;;;4.60;1.03;;;6.70;99.90;;;;;;5096967;28;20513;-68
2021/11/22 04:53:06;;;;;;;1.60;1.10;;;6.70;99.90;;;;;;5096970;28;20500;-68
2021/11/22 04:55:35;;;;;;;1.80;0.97;;;6.70;99.90;;;;;;5096527;28;20913;-68
2021/11/22 04:58:02;;;;;;;3.30;1.17;;;6.60;99.90;;;;;;5096774;28;20533;-67
2021/11/22 05:00:30;;;;;;;1.57;1.17;;;6.50;99.90;;;;;;5096672;28;20496;-69
2021/11/22 05:02:57;;;;;;;2.07;1.40;;;6.50;99.90;;;;;;5096829;28;20599;-68
2021/11/22 05:05:24;;;;;;;3.37;1.20;;;6.50;99.90;;;;;;5096417;28;20491;-68
2021/11/22 05:07:52;;;;;;;1.53;1.13;;;6.40;99.90;;;;;;5096214;28;20459;-68
2021/11/22 05:10:21;;;;;;;2.10;1.13;;;6.40;99.90;;;;;;5096696;28;20477;-68
2021/11/22 05:12:52;;;;;;;1.73;1.07;;;6.30;99.90;;;;;;5095787;28;20533;-69
2021/11/22 05:15:19;;;;;;;3.10;1.10;;;6.20;99.90;;;;;;5096693;28;20955;-69
2021/11/22 05:17:45;;;;;;;1.67;1.17;;;6.20;99.90;;;;;;5096562;28;20851;-68
2021/11/22 05:20:12;;;;;;;1.93;1.10;;;6.10;99.90;;;;;;5096966;28;20450;-69
2021/11/22 05:22:39;;;;;;;1.93;0.90;;;6.10;99.90;;;;;;5096260;28;20486;-68
2021/11/22 05:25:07;;;;;;;1.30;0.97;;;6.10;99.90;;;;;;5098296;28;20464;-68
2021/11/22 05:27:34;;;;;;;1.73;0.90;;;6.10;99.90;;;;;;5096645;28;20835;-67
2021/11/22 05:30:02;;;;;;;1.13;1.00;;;6.00;99.90;;;;;;5096875;28;21014;-68
2021/11/22 05:32:29;;;;;;;3.87;1.07;;;6.00;99.90;;;;;;5096511;28;20489;-67
2021/11/22 05:34:57;;;;;;;1.67;1.30;;;5.90;99.90;;;;;;5095658;28;20462;-68
2021/11/22 05:37:27;;;;;;;1.33;1.00;;;5.90;99.90;;;;;;5096223;28;20453;-68
2021/11/22 05:39:55;;;;;;;1.20;1.00;;;5.90;99.90;;;;;;5096005;28;20465;-67
2021/11/22 05:42:22;;;;;;;1.53;1.30;;;5.80;99.90;;;;;;5096075;28;20456;-68
2021/11/22 05:44:49;;;;;;;1.80;1.00;;;5.80;99.90;;;;;;5095730;28;20522;-66
2021/11/22 05:47:18;;;;;;;3.70;0.90;;;5.70;99.90;;;;;;5095715;28;20459;-68
2021/11/22 05:49:46;;;;;;;5.70;1.10;;;5.60;99.90;;;;;;5095722;28;20461;-68
2021/11/22 05:52:13;;;;;;;2.13;1.07;;;5.60;99.90;;;;;;5095984;28;20464;-68
2021/11/22 05:54:47;;;;;;;10.30;5.57;;;5.50;99.90;;;;;;5095722;28;20459;-68
2021/11/22 05:57:14;;;;;;;1.53;1.20;;;5.50;99.90;;;;;;5095510;28;20440;-68
2021/11/22 05:59:41;;;;;;;1.40;1.00;;;5.40;99.90;;;;;;5095150;28;20492;-68
2021/11/22 06:02:08;;;;;;;3.00;1.20;;;5.40;99.90;;;;;;5095258;28;20515;-68
2021/11/22 06:04:36;;;;;;;1.40;1.00;;;5.40;99.90;;;;;;5095345;28;20492;-68
2021/11/22 06:07:03;;;;;;;1.90;1.30;;;5.30;99.90;;;;;;5095941;28;20916;-68
2021/11/22 06:09:31;;;;;;;2.50;1.10;;;5.30;99.90;;;;;;5095449;28;20466;-68
2021/11/22 06:11:58;;;;;;;1.93;1.10;;;5.20;99.90;;;;;;5095448;28;20477;-68
2021/11/22 06:14:25;;;;;;;2.07;1.80;;;5.20;99.90;;;;;;5095157;28;20521;-68
2021/11/22 06:16:52;;;;;;;2.70;1.20;;;5.20;99.90;;;;;;5094969;28;20929;-68
2021/11/22 06:19:20;;;;;;;2.43;1.20;;;5.10;99.90;;;;;;5094840;28;20925;-68
2021/11/22 06:21:49;;;;;;;2.70;0.90;;;5.10;99.90;;;;;;5095140;28;20973;-68
2021/11/22 06:24:17;;;;;;;1.40;1.30;;;5.00;99.90;;;;;;5095087;28;20446;-68
2021/11/22 06:26:44;;;;;;;1.37;1.20;;;5.00;99.90;;;;;;5095122;28;20457;-68
2021/11/22 06:29:16;;;;;;;1.43;1.10;;;5.00;99.90;;;;;;5095316;28;20457;-68
2021/11/22 06:31:43;;;;;;;1.83;1.10;;;4.90;99.90;;;;;;5095016;28;20468;-67
2021/11/22 06:34:10;;;;;;;4.33;1.30;;;4.90;99.90;;;;;;5094963;28;20460;-67
2021/11/22 06:36:37;;;;;;;1.30;1.00;;;4.90;99.90;;;;;;5094946;28;20495;-67
2021/11/22 06:39:06;;;;;;;1.30;1.03;;;4.80;99.90;;;;;;5094939;28;20524;-67
2021/11/22 06:41:33;;;;;;;2.90;1.27;;;4.80;99.90;;;;;;5094802;28;20534;-68
2021/11/22 06:44:00;;;;;;;1.90;1.13;;;4.80;99.90;;;;;;5095126;28;20488;-69
2021/11/22 06:46:27;;;;;;;1.80;1.37;;;4.70;99.90;;;;;;5094958;28;20518;-68
2021/11/22 06:48:57;;;;;;;2.37;1.50;;;4.70;99.90;;;;;;5094454;28;20480;-69
2021/11/22 06:51:24;;;;;;;1.70;1.40;;;4.60;99.90;;;;;;5094410;28;20935;-68
2021/11/22 06:53:51;;;;;;;2.20;1.30;;;4.60;99.90;;;;;;5094779;28;20496;-68
2021/11/22 06:56:19;;;;;;;4.70;1.40;;;4.60;99.90;;;;;;5094036;28;20468;-70
2021/11/22 06:58:46;;;;;;;2.80;1.70;;;4.50;99.90;;;;;;5094563;28;20512;-68
2021/11/22 07:01:13;;;;;;;2.00;1.20;;;4.50;99.90;;;;;;5094890;28;20747;-69
2021/11/22 07:03:40;;;;;;;2.90;1.27;;;4.40;99.90;;;;;;5094394;28;20455;-69
2021/11/22 07:06:10;;;;;;;2.07;1.40;;;4.40;99.90;;;;;;5094326;28;20941;-68
2021/11/22 07:08:37;;;;;;;1.60;1.20;;;4.40;99.90;;;;;;5094415;28;20456;-68
2021/11/22 07:11:04;;;;;;;2.30;1.57;;;4.40;99.90;;;;;;5094431;28;20970;-68
2021/11/22 07:13:34;;;;;;;1.80;1.30;;;4.40;99.90;;;;;;5094598;28;20537;-68
2021/11/22 07:16:01;;;;;;;1.40;1.10;;;4.40;99.90;;;;;;5094382;28;20466;-69
2021/11/22 07:18:29;;;;;;;1.50;1.30;;;4.40;99.90;;;;;;5094484;28;20534;-67
2021/11/22 07:20:56;;;;;;;1.50;1.23;;;4.30;99.90;;;;;;5093919;28;20487;-68
2021/11/22 07:23:25;;;;;;;2.53;1.70;;;4.40;99.90;;;;;;5093914;28;20522;-69
2021/11/22 07:25:53;;;;;;;2.13;1.40;;;4.40;99.90;;;;;;5094390;28;20455;-68
2021/11/22 07:28:20;;;;;;;1.77;1.40;;;4.30;99.90;;;;;;5093803;28;20502;-69
2021/11/22 07:30:49;;;;;;;2.83;1.43;;;4.40;99.90;;;;;;5094193;28;20540;-68
2021/11/22 07:33:16;;;;;;;3.07;1.60;;;4.40;99.90;;;;;;5094422;28;20459;-67
2021/11/22 07:35:44;;;;;;;2.00;1.50;;;4.30;99.90;;;;;;5094427;28;20908;-68
2021/11/22 07:38:11;;;;;;;5.70;1.63;;;4.40;99.90;;;;;;5098158;28;20797;-69
2021/11/22 07:40:39;;;;;;;2.33;1.80;;;4.40;99.90;;;;;;5098167;28;20494;-68
2021/11/22 07:43:06;;;;;;;4.03;1.63;;;4.40;99.90;;;;;;5098088;28;20458;-69
2021/11/22 07:45:34;;;;;;;3.60;2.10;;;4.40;99.90;;;;;;5097767;28;20459;-68
2021/11/22 07:48:02;;;;;;;4.00;3.60;;;4.40;99.90;;;;;;5097578;28;20467;-68
2021/11/22 07:50:30;;;;;;;2.07;1.87;;;4.40;99.90;;;;;;5097854;28;20487;-68
2021/11/22 07:52:57;;;;;;;2.77;1.87;;;4.40;99.90;;;;;;5097497;28;20468;-68
2021/11/22 07:55:25;;;;;;;2.10;2.00;;;4.40;99.90;;;;;;5097603;28;20831;-69
2021/11/22 07:57:53;;;;;;;2.00;1.90;;;4.40;99.90;;;;;;5097822;28;20519;-69
2021/11/22 08:00:22;;;;;;;2.83;1.50;;;4.40;99.90;;;;;;5097769;28;20491;-69
2021/11/22 08:02:49;;;;;;;2.33;1.70;;;4.50;99.90;;;;;;5097504;28;20527;-67
2021/11/22 08:05:18;;;;;;;2.50;2.10;;;4.50;99.90;;;;;;5097601;28;20536;-69
2021/11/22 08:07:45;;;;;;;2.50;1.93;;;4.50;99.90;;;;;;5097083;28;20463;-69
2021/11/22 08:10:25;;;;;;;2.27;1.63;;;4.50;99.90;;;;;;5097558;28;20530;-68
2021/11/22 08:12:52;;;;;;;3.67;2.10;;;4.60;99.90;;;;;;5097426;28;20435;-68
2021/11/22 08:15:20;;;;;;;3.23;1.40;;;4.60;99.90;;;;;;5097338;28;20457;-69
2021/11/22 08:17:47;;;;;;;3.60;1.70;;;4.60;99.90;;;;;;5097488;28;20608;-69
2021/11/22 08:20:18;;;;;;;1.50;1.30;;;4.60;99.90;;;;;;5097467;28;20762;-68
2021/11/22 08:22:47;;;;;;;1.50;1.40;;;4.70;99.90;;;;;;5096808;28;20472;-68
2021/11/22 08:25:15;;;;;;;1.70;1.30;;;4.70;99.90;;;;;;5097475;28;20626;-68
2021/11/22 08:27:42;;;;;;;2.53;1.90;;;4.70;99.90;;;;;;5097369;28;20492;-68
2021/11/22 08:30:12;;;;;;;1.90;1.60;;;4.60;99.90;;;;;;5096939;28;20533;-68
2021/11/22 08:32:40;;;;;;;2.30;1.57;;;4.60;99.90;;;;;;5097000;28;20634;-68
2021/11/22 08:35:08;;;;;;;2.27;1.43;;;4.70;99.90;;;;;;5097310;28;20544;-69
2021/11/22 08:37:36;;;;;;;3.00;1.57;;;4.60;99.90;;;;;;5097105;28;20857;-68
2021/11/22 08:40:05;;;;;;;5.00;1.73;;;4.60;99.90;;;;;;5096819;28;20491;-68
2021/11/22 08:42:32;;;;;;;2.77;1.50;;;4.60;99.90;;;;;;5096808;28;20454;-68
2021/11/22 08:45:00;;;;;;;3.00;2.03;;;4.60;99.90;;;;;;5096735;28;20501;-68
2021/11/22 08:47:27;;;;;;;4.97;1.80;;;4.70;99.90;;;;;;5095415;28;20460;-68
2021/11/22 08:49:54;;;;;;;4.27;1.93;;;4.70;99.90;;;;;;5096965;28;20488;-68
2021/11/22 08:52:21;;;;;;;26.00;3.50;;;4.80;99.90;;;;;;5096912;28;20956;-67
2021/11/22 08:54:49;;;;;;;2.77;1.50;;;4.90;99.90;;;;;;5096356;28;20459;-68
2021/11/22 08:57:17;;;;;;;2.90;1.53;;;4.90;99.90;;;;;;5096978;28;20456;-68
2021/11/22 08:59:44;;;;;;;3.03;1.57;;;5.00;99.90;;;;;;5096748;28;20488;-68
2021/11/22 09:02:15;;;;;;;2.27;1.70;;;5.10;99.90;;;;;;5096822;28;20479;-68
2021/11/22 09:04:42;;;;;;;2.80;1.37;;;5.20;99.90;;;;;;5097234;28;20440;-68
2021/11/22 09:07:09;;;;;;;6.77;2.00;;;5.20;99.90;;;;;;5096501;28;20546;-67
2021/11/22 09:09:36;;;;;;;1.53;1.40;;;5.20;99.90;;;;;;5096435;28;20457;-69
2021/11/22 09:12:05;;;;;;;1.40;1.00;;;5.30;99.90;;;;;;5096195;28;20570;-68
2021/11/22 09:14:32;;;;;;;7.93;1.40;;;5.30;99.90;;;;;;5095958;28;20933;-68
2021/11/22 09:17:00;;;;;;;1.80;1.50;;;5.30;99.90;;;;;;5096508;28;20461;-68
2021/11/22 09:19:27;;;;;;;1.63;1.53;;;5.40;99.90;;;;;;5096312;28;20465;-68
2021/11/22 09:21:54;;;;;;;4.70;1.70;;;5.40;99.90;;;;;;5095852;28;20520;-68
2021/11/22 09:24:21;;;;;;;2.00;1.63;;;5.50;99.90;;;;;;5097537;28;20450;-69
2021/11/22 09:26:48;;;;;;;13.33;2.67;;;5.50;99.90;;;;;;5096464;28;20515;-68
2021/11/22 09:29:16;;;;;;;3.33;2.77;;;5.60;99.90;;;;;;5097764;28;20488;-68
2021/11/22 09:31:43;;;;;;;2.13;1.73;;;5.60;99.90;;;;;;5097759;28;20532;-67
2021/11/22 09:34:10;;;;;;;3.10;1.43;;;5.70;99.90;;;;;;5096002;28;20461;-67
2021/11/22 09:36:37;;;;;;;1.57;1.30;;;5.70;99.90;;;;;;5096206;28;20487;-67
2021/11/22 09:39:04;;;;;;;1.40;1.30;;;5.70;99.90;;;;;;5095764;28;20484;-68
2021/11/22 09:41:31;;;;;;;2.70;1.20;;;5.80;99.90;;;;;;5095788;28;20449;-67
2021/11/22 09:43:59;;;;;;;3.77;1.37;;;5.90;99.90;;;;;;5096157;28;20461;-69
2021/11/22 09:46:28;;;;;;;2.17;1.20;;;5.90;99.90;;;;;;5096143;28;21003;-67
2021/11/22 09:48:55;;;;;;;1.63;1.10;;;5.90;99.90;;;;;;5095315;28;20944;-68
2021/11/22 09:51:22;;;;;;;4.20;1.33;;;6.00;99.90;;;;;;5095147;28;20520;-66
2021/11/22 09:53:49;;;;;;;2.03;1.20;;;6.00;99.90;;;;;;5095475;28;20463;-69
2021/11/22 09:56:16;;;;;;;1.13;1.03;;;5.90;99.90;;;;;;5096045;28;20761;-68
2021/11/22 09:58:43;;;;;;;1.83;1.13;;;6.00;99.90;;;;;;5095012;28;20465;-68
2021/11/22 10:01:14;;;;;;;1.37;1.00;;;6.00;99.90;;;;;;5095365;28;20458;-68
2021/11/22 10:03:43;;;;;;;3.30;1.00;;;6.00;99.90;;;;;;5096034;28;20476;-67
2021/11/22 10:06:10;;;;;;;1.10;0.97;;;6.10;99.90;;;;;;5095573;28;20831;-68
2021/11/22 10:08:42;;;;;;;1.77;0.90;;;6.10;99.90;;;;;;5096002;28;20493;-65
2021/11/22 10:11:12;;;;;;;1.50;0.90;;;6.10;99.90;;;;;;5095338;28;20840;-67
2021/11/22 10:13:41;;;;;;;2.43;1.13;;;6.10;99.90;;;;;;5095742;28;20460;-67
2021/11/22 10:16:25;;;;;;;1.93;1.83;;;6.10;99.90;;;;;;5095741;28;20488;-67
2021/11/22 10:18:58;;;;;;;1.20;0.90;;;6.10;99.90;;;;;;5096144;28;20474;-65
2021/11/22 10:21:28;;;;;;;1.83;0.90;;;6.10;99.90;;;;;;5095804;28;20513;-66
2021/11/22 10:24:00;;;;;;;3.40;1.03;;;6.20;99.90;;;;;;5095351;28;20509;-67
2021/11/22 10:26:36;;;;;;;2.30;0.90;;;6.30;99.90;;;;;;5095094;28;20477;-66
2021/11/22 10:29:03;;;;;;;1.70;1.27;;;6.20;99.90;;;;;;5094993;28;20441;-67
2021/11/22 10:31:31;;;;;;;1.20;0.90;;;6.20;99.90;;;;;;5094801;28;20495;-67
2021/11/22 10:34:01;;;;;;;1.57;1.10;;;6.20;99.90;;;;;;5094317;28;20453;-67
2021/11/22 10:36:29;;;;;;;1.30;1.10;;;6.30;99.90;;;;;;5094733;28;20461;-67
2021/11/22 10:38:58;;;;;;;1.20;0.90;;;6.40;99.90;;;;;;5095102;28;20550;-66
2021/11/22 10:41:28;;;;;;;2.43;1.07;;;6.40;99.90;;;;;;5094769;28;20511;-67
2021/11/22 10:44:03;;;;;;;1.10;0.80;;;6.40;99.90;;;;;;5094987;28;20476;-67
2021/11/22 10:46:34;;;;;;;1.50;1.10;;;6.40;99.90;;;;;;5095277;28;20451;-67
2021/11/22 10:49:12;;;;;;;1.23;0.80;;;6.40;99.90;;;;;;5094492;28;20897;-67
2021/11/22 10:51:43;;;;;;;1.70;0.97;;;6.50;99.90;;;;;;5094862;28;20466;-67
2021/11/22 10:54:11;;;;;;;1.13;0.87;;;6.50;99.90;;;;;;5095250;28;20881;-67
2021/11/22 10:56:40;;;;;;;1.07;0.70;;;6.50;99.90;;;;;;5094207;28;20489;-67
2021/11/22 10:59:08;;;;;;;2.27;0.90;;;6.60;99.90;;;;;;5094297;28;20462;-67
2021/11/22 11:01:41;;;;;;;1.40;0.93;;;6.60;99.90;;;;;;5094778;28;20456;-67
2021/11/22 11:04:18;;;;;;;1.57;0.80;;;6.60;99.90;;;;;;5094563;28;20482;-67
2021/11/22 11:06:50;;;;;;;1.00;0.70;;;6.70;99.90;;;;;;5094235;28;20484;-67
2021/11/22 11:09:21;;;;;;;2.30;1.00;;;6.80;99.90;;;;;;5094214;28;20941;-67
2021/11/22 11:11:49;;;;;;;1.10;0.73;;;6.80;99.90;;;;;;5096406;28;20898;-68
2021/11/22 11:14:17;;;;;;;1.17;0.80;;;6.90;99.90;;;;;;5098579;28;20458;-67
2021/11/22 11:16:45;;;;;;;1.23;0.63;;;6.90;99.90;;;;;;5098550;28;20468;-67
2021/11/22 11:19:15;;;;;;;2.17;0.90;;;6.90;99.90;;;;;;5098610;28;20553;-69
2021/11/22 11:21:45;;;;;;;1.83;0.77;;;7.00;99.90;;;;;;5100520;28;20485;-68
2021/11/22 11:24:13;;;;;;;2.13;0.90;;;7.00;99.90;;;;;;5098542;28;20499;-68
2021/11/22 11:26:42;;;;;;;1.30;0.80;;;7.10;99.90;;;;;;5098408;28;20455;-68
2021/11/22 11:29:10;;;;;;;1.20;0.80;;;7.10;99.90;;;;;;5097862;28;20527;-69
2021/11/22 11:31:37;;;;;;;1.00;0.80;;;7.10;99.90;;;;;;5097885;28;20455;-68
2021/11/22 11:34:07;;;;;;;1.10;0.80;;;7.10;99.90;;;;;;5098292;28;20458;-68
2021/11/22 11:36:52;;;;;;;1.70;0.83;;;7.10;99.90;;;;;;5098038;28;20485;-68
2021/11/22 11:39:42;;;;;;;1.10;0.90;;;7.00;99.90;;;;;;5098861;28;20436;-68
2021/11/22 11:42:22;;;;;;;1.40;0.90;;;7.10;99.90;;;;;;5098809;28;20542;-69
2021/11/22 11:45:02;;;;;;;12.10;9.00;;;7.10;99.90;;;;;;5098348;28;20772;-69
2021/11/22 11:47:37;;;;;;;2.33;1.40;;;7.20;99.90;;;;;;5097990;28;21023;-68
2021/11/22 11:50:21;;;;;;;1.30;1.10;;;7.30;99.90;;;;;;5101931;28;20436;-68
2021/11/22 11:52:55;;;;;;;1.00;0.80;;;7.40;99.90;;;;;;5098359;28;20484;-68
2021/11/22 11:55:23;;;;;;;2.73;1.00;;;7.40;99.90;;;;;;5097838;28;20450;-67
2021/11/22 11:58:12;;;;;;;1.77;0.90;;;7.40;99.90;;;;;;5098364;28;20548;-68
2021/11/22 12:00:51;;;;;;;1.20;1.00;;;7.50;99.90;;;;;;5097742;28;20888;-68
2021/11/22 12:03:18;;;;;;;1.50;1.10;;;7.50;99.90;;;;;;5097924;28;20488;-70
2021/11/22 12:05:47;;;;;;;2.50;0.90;;;7.50;99.90;;;;;;5097663;28;20489;-68
2021/11/22 12:08:23;;;;;;;1.30;1.13;;;7.70;99.90;;;;;;5097755;28;20460;-68
2021/11/22 12:10:50;;;;;;;1.20;0.83;;;8.60;99.90;;;;;;5098169;28;20892;-67
2021/11/22 12:13:19;;;;;;;1.00;0.80;;;9.30;99.90;;;;;;5097501;28;20869;-68
2021/11/22 12:15:49;;;;;;;1.00;0.70;;;9.50;99.90;;;;;;5097280;28;20519;-68
2021/11/22 12:18:26;;;;;;;1.10;0.80;;;9.70;99.90;;;;;;5097164;28;20458;-68
2021/11/22 12:21:03;;;;;;;1.60;0.70;;;9.50;99.90;;;;;;5097265;28;20698;-67
2021/11/22 12:23:41;;;;;;;1.33;0.80;;;9.80;99.90;;;;;;5096841;28;20501;-69
2021/11/22 12:26:12;;;;;;;1.10;0.70;;;10.40;99.90;;;;;;5097305;28;20472;-68
2021/11/22 12:29:01;;;;;;;1.30;1.10;;;10.30;99.90;;;;;;5097568;28;20527;-68
2021/11/22 12:31:42;;;;;;;2.33;0.80;;;9.90;99.90;;;;;;5097120;28;20497;-68
2021/11/22 12:34:11;;;;;;;1.00;0.70;;;9.60;99.90;;;;;;5097305;28;20491;-69
2021/11/22 12:36:44;;;;;;;1.10;0.70;;;9.40;99.90;;;;;;5096633;28;20460;-68
2021/11/22 12:39:16;;;;;;;1.10;0.70;;;9.60;99.90;;;;;;5096562;28;20490;-67
2021/11/22 12:41:45;;;;;;;1.00;0.60;;;10.70;99.90;;;;;;5096829;28;20500;-68
2021/11/22 12:44:15;;;;;;;1.00;0.60;;;12.10;99.90;;;;;;5096573;28;20466;-68
2021/11/22 12:46:47;;;;;;;1.43;0.80;;;12.50;99.90;;;;;;5096703;28;20495;-69
2021/11/22 12:49:38;;;;;;;1.20;0.70;;;12.20;99.90;;;;;;5096666;28;20446;-68
2021/11/22 12:52:13;;;;;;;3.30;1.00;;;12.40;99.90;;;;;;5096723;28;20966;-68
2021/11/22 12:54:51;;;;;;;2.93;1.40;;;13.10;99.90;;;;;;5096863;28;20522;-68
2021/11/22 12:57:20;;;;;;;6.07;2.47;;;13.80;99.90;;;;;;5096981;28;20527;-68
2021/11/22 13:00:28;;;;;;;3.40;1.50;;;14.60;99.90;;;;;;5096478;28;20462;-68
2021/11/22 13:03:05;;;;;;;1.83;1.00;;;15.10;92.20;;;;;;5096600;28;20514;-68
2021/11/22 13:05:55;;;;;;;1.87;0.63;;;15.40;86.10;;;;;;5096682;28;20446;-68